Aviation Digital Data Service (ADDS)

Output produced by METARs form (1709 UTC 24 April 2017)
found at http://www.aviationweather.gov/adds/metars/
 
LLBG 241650Z 34008KT 9999 FEW035 18/09 Q1019 NOSIG
TAF LLBG 241703Z 2418/2518 35006KT 9999 FEW030 
     BECMG 2422/2424 13004KT 
     BECMG 2507/2509 33013KT CAVOK TX24/2511Z TN14/2503Z
       
LLET 241650Z 01018KT CAVOK 25/04 Q1014
TAF LLET 241703Z 2418/2518 02020KT CAVOK 
     TEMPO 2418/2421 02020G30KT 
     BECMG 2421/2423 02014KT 
     BECMG 2505/2507 02020KT TX29/2512Z TN16/2503Z
       
LLHA 241650Z 33008KT 9999 FEW035 18/10 Q1018
TAF LLHA 241103Z 2412/2512 31013KT 9999 FEW035 
     BECMG 2416/2419 VRB04KT FEW030 
     BECMG 2506/2509 33014KT CAVOK TX21/2412Z TN15/2503Z
       
LLIB 241450Z 31011KT CAVOK 19/08 Q1017
TAF LLIB 241106Z 2412/2512 34010KT 9999 FEW045 
     BECMG 2416/2419 VRB03KT CAVOK 
     BECMG 2506/2508 16006KT TX22/2412Z TN09/2503Z
       
TAF LLOV 231704Z 2318/2418 34008KT 9999 FEW030 
     BECMG 2406/2409 01012KT CAVOK TX25/2412Z TN12/2404Z
       
LLSD 241650Z 34006KT 9999 SCT035 18/10 Q1019
TAF LLSD 241100Z 2412/2512 31012KT 9999 SCT035 
     BECMG 2416/2418 36006KT 
     BECMG 2423/2501 14004KT SCT025 
     BECMG 2506/2509 32013KT CAVOK TX23/2412Z TN13/2503Z
       
LLBG 241650Z 34008KT 9999 FEW035 18/09 Q1019 NOSIG
TAF LLBG 241703Z 2418/2518 35006KT 9999 FEW030 
     BECMG 2422/2424 13004KT 
     BECMG 2507/2509 33013KT CAVOK TX24/2511Z TN14/2503Z
       
LLET 241650Z 01018KT CAVOK 25/04 Q1014
TAF LLET 241703Z 2418/2518 02020KT CAVOK 
     TEMPO 2418/2421 02020G30KT 
     BECMG 2421/2423 02014KT 
     BECMG 2505/2507 02020KT TX29/2512Z TN16/2503Z
       
LLHA 241650Z 33008KT 9999 FEW035 18/10 Q1018
TAF LLHA 241103Z 2412/2512 31013KT 9999 FEW035 
     BECMG 2416/2419 VRB04KT FEW030 
     BECMG 2506/2509 33014KT CAVOK TX21/2412Z TN15/2503Z
       
LLIB 241450Z 31011KT CAVOK 19/08 Q1017
TAF LLIB 241106Z 2412/2512 34010KT 9999 FEW045 
     BECMG 2416/2419 VRB03KT CAVOK 
     BECMG 2506/2508 16006KT TX22/2412Z TN09/2503Z
       
TAF LLOV 231704Z 2318/2418 34008KT 9999 FEW030 
     BECMG 2406/2409 01012KT CAVOK TX25/2412Z TN12/2404Z
       
LLSD 241650Z 34006KT 9999 SCT035 18/10 Q1019
TAF LLSD 241100Z 2412/2512 31012KT 9999 SCT035 
     BECMG 2416/2418 36006KT 
     BECMG 2423/2501 14004KT SCT025 
     BECMG 2506/2509 32013KT CAVOK TX23/2412Z TN13/2503Z